• Join FlightAware (Why Join?)
  • Login
  • US Flag 
Rudolph Flight #1: Arrived! 
10:05PM EST


 

Airport Tracker/Info


-or-


 

Live Flight TrackerFlight Track Log ✈ SKW4764 ✈ 29-Oct-2013 ✈ KSLC - KMSO

Flight Track Log - Related Links

Times and Time Zones

All times are in EDT time to prevent confusion due to time zone crossing. See the SKW4764 flight status page for this flight to view local times or setup timezone preferences in your user account.

Time Position Orientation Groundspeed Altitude Reporting Facility
EDT Latitude Longitude Course Direction KTS MPH feet Rate Location/Type
05:19PM 40.8000 -111.9789 North 165 190 4,900  Level Salt Lake Center
05:19PM 40.8156 -111.9775 North 160 184 5,600 1,560 Climbing Salt Lake Center
05:20PM 40.8772 -111.9856 354° North 236 272 7,200 2,220 Climbing Salt Lake Center
05:21PM 40.9569 -111.9956 355° North 286 329 10,200 2,760 Climbing Salt Lake Center
05:23PM 41.0342 -111.9525 23° Northeast 297 342 13,000 2,640 Climbing Salt Lake Center
05:24PM 41.1142 -111.8994 27° Northeast 312 359 15,700 2,040 Climbing Salt Lake Center
05:25PM 41.1967 -111.8450 26° Northeast 324 373 17,300 1,800 Climbing Salt Lake Center
05:26PM 41.2878 -111.7814 28° Northeast 365 420 19,400 1,980 Climbing Salt Lake Center
05:27PM 41.3981 -111.7067 27° Northeast 372 428 21,400 1,740 Climbing Salt Lake Center
05:28PM 41.4972 -111.6544 22° Northeast 382 440 23,000 1,320 Climbing Salt Lake Center
05:29PM 41.5972 -111.5961 24° Northeast 390 449 24,200 1,140 Climbing Salt Lake Center
05:30PM 41.7019 -111.5861 North 395 455 25,400 1,080 Climbing Salt Lake Center
05:31PM 41.8067 -111.6322 342° North 397 457 26,500 960 Climbing Salt Lake Center
05:32PM 41.9103 -111.6794 341° North 395 455 27,400 1,080 Climbing Salt Lake Center
05:33PM 42.0400 -111.7367 342° North 406 467 28,800 900 Climbing Salt Lake Center
05:34PM 42.1472 -111.7853 341° North 408 470 29,300 720 Climbing Salt Lake Center
05:35PM 42.2550 -111.8325 342° North 408 470 30,400 1,020 Climbing Salt Lake Center
05:36PM 42.3611 -111.8794 342° North 403 464 31,500 720 Climbing Salt Lake Center
05:37PM 42.4650 -111.9239 342° North 395 455 32,000 240 Climbing Salt Lake Center
05:38PM 42.5719 -111.9722 342° North 404 465 32,000  Level Salt Lake Center
05:39PM 42.7042 -112.0333 341° North 418 481 32,000  Level Salt Lake Center
05:40PM 42.8161 -112.0842 342° North 426 490 32,000  Level Salt Lake Center
05:41PM 42.9261 -112.1322 342° North 432 497 32,000  Level Salt Lake Center
05:42PM 43.0558 -112.1922 341° North 439 505 32,000  Level Salt Lake Center
05:43PM 43.1633 -112.2403 342° North 426 490 32,000  Level Salt Lake Center
05:44PM 43.2828 -112.2969 341° North 407 468 32,000  Level Salt Lake Center
05:45PM 43.3822 -112.3417 342° North 397 457 32,000  Level Salt Lake Center
05:46PM 43.4953 -112.3925 342° North 384 442 32,000  Level Salt Lake Center
05:47PM 43.5928 -112.4389 341° North 384 442 32,000  Level Salt Lake Center
05:48PM 43.7053 -112.4908 342° North 382 440 32,000  Level Salt Lake Center
05:49PM 43.8022 -112.5367 341° North 383 441 32,000  Level Salt Lake Center
05:50PM 43.9014 -112.5825 342° North 388 447 32,000  Level Salt Lake Center
05:51PM 44.0189 -112.6394 341° North 396 456 32,000  Level Salt Lake Center
05:52PM 44.1200 -112.6861 342° North 398 458 32,000  Level Salt Lake Center
05:53PM 44.2381 -112.7425 341° North 400 460 32,000  Level Salt Lake Center
05:55PM 44.3411 -112.7917 341° North 406 467 32,000  Level Salt Lake Center
05:56PM 44.4619 -112.8497 341° North 408 470 32,000  Level Salt Lake Center
05:57PM 44.5644 -112.9003 341° North 408 470 32,000  Level Salt Lake Center
05:58PM 44.6678 -112.9511 341° North 410 472 32,000  Level Salt Lake Center
05:59PM 44.7894 -113.0094 341° North 412 474 32,000  Level Salt Lake Center
06:00PM 44.8939 -113.0617 340° North 414 476 32,000  Level Salt Lake Center
06:01PM 45.0150 -113.1206 341° North 413 475 32,000  Level Salt Lake Center
06:02PM 45.1197 -113.1728 341° North 414 476 32,000  Level Salt Lake Center
06:03PM 45.2419 -113.2339 341° North 417 480 32,000  Level Salt Lake Center
06:04PM 45.3553 -113.2897 341° North 417 480 32,000  Level Salt Lake Center
06:05PM 45.4653 -113.3453 340° North 413 475 32,000 -540 Level Salt Lake Center
06:06PM 45.5778 -113.4014 341° North 419 482 30,900 -1,620 Descending Salt Lake Center
06:07PM 45.6850 -113.4558 340° North 403 464 28,700 -2,280 Descending Salt Lake Center
06:08PM 45.7978 -113.5108 341° North 395 455 26,300 -2,340 Descending Salt Lake Center
06:09PM 45.8944 -113.5594 341° North 369 425 24,000 -2,040 Descending Salt Lake Center
06:10PM 45.9883 -113.6067 341° North 356 410 22,200 -1,740 Descending Salt Lake Center
06:11PM 46.0781 -113.6536 340° North 339 390 20,500 -1,680 Descending Salt Lake Center
06:12PM 46.1714 -113.6994 341° North 337 388 18,800 -1,560 Descending Salt Lake Center
06:13PM 46.2567 -113.7472 339° North 330 380 17,300 -1,500 Descending Salt Lake Center
06:14PM 46.3478 -113.7897 342° North 320 368 15,800 -1,560 Descending Salt Lake Center
06:15PM 46.4281 -113.8344 339° North 311 358 14,100 -1,800 Descending Salt Lake Center
06:16PM 46.5042 -113.8736 340° North 294 338 12,200 -1,920 Descending Salt Lake Center
06:17PM 46.5844 -113.9144 341° North 284 327 10,200 -1,320 Descending Salt Lake Center
06:18PM 46.6508 -113.9508 339° North 258 297 9,500 -960 Descending Salt Lake Center
06:19PM 46.7089 -113.9864 337° Northwest 216 249 8,300 -1,260 Descending Salt Lake Center
06:20PM 46.7597 -114.0203 335° Northwest 202 232 7,000 -1,260 Descending Salt Lake Center
06:21PM 46.8131 -114.0244 357° North 196 226 5,700 -1,260 Descending Salt Lake Center
06:22PM 46.8622 -114.0158 North 167 192 4,500 -960 Descending Salt Lake Center
06:23PM 46.8931 -114.0525 321° Northwest 148 170 3,800 -660 Descending Salt Lake Center
06:24PM 46.9161 -114.0925 310° West 138 159 3,200 -600 Descending Salt Lake Center